sensor_id;sensor_type;location;lat;lon;timestamp;pressure;altitude;pressure_sealevel;temperature;humidity
51313;BME280;37397;53.226;10.400;2023-05-07T00:00:14;101732.84;;;12.47;59.27
51313;BME280;37397;53.226;10.400;2023-05-07T00:02:42;101727.28;;;12.43;59.34
51313;BME280;37397;53.226;10.400;2023-05-07T00:05:09;101723.59;;;12.43;59.39
51313;BME280;37397;53.226;10.400;2023-05-07T00:07:36;101726.44;;;12.43;59.31
51313;BME280;37397;53.226;10.400;2023-05-07T00:10:04;101729.78;;;12.41;59.54
51313;BME280;37397;53.226;10.400;2023-05-07T00:12:32;101730.91;;;12.44;59.32
51313;BME280;37397;53.226;10.400;2023-05-07T00:15:03;101729.00;;;12.40;59.15
51313;BME280;37397;53.226;10.400;2023-05-07T00:17:30;101725.34;;;12.40;59.21
51313;BME280;37397;53.226;10.400;2023-05-07T00:19:57;101729.94;;;12.37;59.25
51313;BME280;37397;53.226;10.400;2023-05-07T00:22:23;101732.34;;;12.39;59.18
51313;BME280;37397;53.226;10.400;2023-05-07T00:24:49;101729.63;;;12.35;59.17
51313;BME280;37397;53.226;10.400;2023-05-07T00:27:16;101722.63;;;12.36;59.24
51313;BME280;37397;53.226;10.400;2023-05-07T00:29:48;101720.72;;;12.33;59.27
51313;BME280;37397;53.226;10.400;2023-05-07T00:32:15;101719.13;;;12.32;59.32
51313;BME280;37397;53.226;10.400;2023-05-07T00:34:42;101724.84;;;12.32;59.28
51313;BME280;37397;53.226;10.400;2023-05-07T00:37:09;101726.44;;;12.33;59.37
51313;BME280;37397;53.226;10.400;2023-05-07T00:39:36;101726.44;;;12.33;59.24
51313;BME280;37397;53.226;10.400;2023-05-07T00:42:03;101719.13;;;12.32;59.36
51313;BME280;37397;53.226;10.400;2023-05-07T00:44:30;101715.13;;;12.30;59.24
51313;BME280;37397;53.226;10.400;2023-05-07T00:46:57;101721.97;;;12.32;59.56
51313;BME280;37397;53.226;10.400;2023-05-07T00:49:37;101725.78;;;12.29;59.14
51313;BME280;37397;53.226;10.400;2023-05-07T00:52:06;101722.91;;;12.29;59.16
51313;BME280;37397;53.226;10.400;2023-05-07T00:54:34;101717.66;;;12.28;59.50
51313;BME280;37397;53.226;10.400;2023-05-07T00:57:02;101714.00;;;12.27;59.45
51313;BME280;37397;53.226;10.400;2023-05-07T00:59:31;101712.09;;;12.24;59.33
51313;BME280;37397;53.226;10.400;2023-05-07T01:01:59;101709.56;;;12.26;59.25
51313;BME280;37397;53.226;10.400;2023-05-07T01:04:26;101709.56;;;12.26;59.29
51313;BME280;37397;53.226;10.400;2023-05-07T01:06:55;101709.56;;;12.26;59.44
51313;BME280;37397;53.226;10.400;2023-05-07T01:09:24;101706.38;;;12.24;59.44
51313;BME280;37397;53.226;10.400;2023-05-07T01:11:52;101694.59;;;12.22;59.30
51313;BME280;37397;53.226;10.400;2023-05-07T01:14:19;101708.91;;;12.22;59.33
51313;BME280;37397;53.226;10.400;2023-05-07T01:16:48;101706.53;;;12.20;59.34
51313;BME280;37397;53.226;10.400;2023-05-07T01:19:19;101703.19;;;12.22;59.51
51313;BME280;37397;53.226;10.400;2023-05-07T01:21:47;101706.06;;;12.22;59.46
51313;BME280;37397;53.226;10.400;2023-05-07T01:24:16;101704.13;;;12.19;59.51
51313;BME280;37397;53.226;10.400;2023-05-07T01:26:43;101702.38;;;12.21;59.53
51313;BME280;37397;53.226;10.400;2023-05-07T01:29:13;101705.72;;;12.20;59.52
51313;BME280;37397;53.226;10.400;2023-05-07T01:31:41;101704.13;;;12.19;59.45
51313;BME280;37397;53.226;10.400;2023-05-07T01:34:09;101703.78;;;12.17;59.68
51313;BME280;37397;53.226;10.400;2023-05-07T01:36:38;101696.03;;;12.17;59.35
51313;BME280;37397;53.226;10.400;2023-05-07T01:39:06;101701.88;;;12.14;59.31
51313;BME280;37397;53.226;10.400;2023-05-07T01:41:32;101698.22;;;12.13;59.48
51313;BME280;37397;53.226;10.400;2023-05-07T01:44:00;101693.75;;;12.12;59.44
51313;BME280;37397;53.226;10.400;2023-05-07T01:46:27;101690.41;;;12.14;59.67
51313;BME280;37397;53.226;10.400;2023-05-07T01:48:55;101689.31;;;12.11;59.19
51313;BME280;37397;53.226;10.400;2023-05-07T01:51:22;101688.53;;;12.11;59.23
51313;BME280;37397;53.226;10.400;2023-05-07T01:53:49;101698.69;;;12.12;59.52
51313;BME280;37397;53.226;10.400;2023-05-07T01:56:18;101704.41;;;12.12;59.47
51313;BME280;37397;53.226;10.400;2023-05-07T01:58:46;101706.47;;;12.11;59.43
51313;BME280;37397;53.226;10.400;2023-05-07T02:01:13;101707.75;;;12.10;59.18
51313;BME280;37397;53.226;10.400;2023-05-07T02:03:41;101711.41;;;12.11;59.42
51313;BME280;37397;53.226;10.400;2023-05-07T02:06:15;101719.19;;;12.10;59.33
51313;BME280;37397;53.226;10.400;2023-05-07T02:08:42;101722.50;;;12.09;59.33
51313;BME280;37397;53.226;10.400;2023-05-07T02:11:10;101722.97;;;12.07;59.44
51313;BME280;37397;53.226;10.400;2023-05-07T02:13:36;101719.81;;;12.05;59.41
51313;BME280;37397;53.226;10.400;2023-05-07T02:16:03;101730.00;;;12.06;59.38
51313;BME280;37397;53.226;10.400;2023-05-07T02:18:29;101718.19;;;12.04;59.36
51313;BME280;37397;53.226;10.400;2023-05-07T02:20:56;101723.28;;;12.00;59.40
51313;BME280;37397;53.226;10.400;2023-05-07T02:23:23;101737.44;;;12.03;59.51
51313;BME280;37397;53.226;10.400;2023-05-07T02:25:50;101731.72;;;12.03;59.40
51313;BME280;37397;53.226;10.400;2023-05-07T02:28:17;101725.34;;;11.99;59.38
51313;BME280;37397;53.226;10.400;2023-05-07T02:30:59;101732.66;;;12.00;59.38
51313;BME280;37397;53.226;10.400;2023-05-07T02:33:27;101731.06;;;11.99;59.50
51313;BME280;37397;53.226;10.400;2023-05-07T02:35:55;101724.22;;;11.97;59.34
51313;BME280;37397;53.226;10.400;2023-05-07T02:38:22;101732.00;;;11.96;59.51
51313;BME280;37397;53.226;10.400;2023-05-07T02:40:48;101732.00;;;11.96;59.19
51313;BME280;37397;53.226;10.400;2023-05-07T02:43:15;101743.78;;;11.98;59.54
51313;BME280;37397;53.226;10.400;2023-05-07T02:45:45;101739.31;;;11.97;59.35
51313;BME280;37397;53.226;10.400;2023-05-07T02:48:13;101728.81;;;11.94;59.34
51313;BME280;37397;53.226;10.400;2023-05-07T02:50:39;101739.78;;;11.96;59.45
51313;BME280;37397;53.226;10.400;2023-05-07T02:53:07;101740.59;;;11.96;59.36
51313;BME280;37397;53.226;10.400;2023-05-07T02:55:34;101733.25;;;11.95;59.43
51313;BME280;37397;53.226;10.400;2023-05-07T02:58:00;101734.88;;;11.96;59.30
51313;BME280;37397;53.226;10.400;2023-05-07T03:00:30;101729.63;;;11.95;59.54
51313;BME280;37397;53.226;10.400;2023-05-07T03:03:08;101730.09;;;11.93;59.56
51313;BME280;37397;53.226;10.400;2023-05-07T03:05:34;101731.34;;;11.92;59.45
51313;BME280;37397;53.226;10.400;2023-05-07T03:08:01;101737.84;;;11.93;59.24
51313;BME280;37397;53.226;10.400;2023-05-07T03:10:28;101732.94;;;11.93;59.45
51313;BME280;37397;53.226;10.400;2023-05-07T03:12:54;101736.28;;;11.92;59.50
51313;BME280;37397;53.226;10.400;2023-05-07T03:15:21;101729.72;;;11.91;59.37
51313;BME280;37397;53.226;10.400;2023-05-07T03:17:48;101733.84;;;11.90;59.51
51313;BME280;37397;53.226;10.400;2023-05-07T03:20:15;101736.38;;;11.88;59.55
51313;BME280;37397;53.226;10.400;2023-05-07T03:22:42;101744.47;;;11.90;59.49
51313;BME280;37397;53.226;10.400;2023-05-07T03:25:09;101739.56;;;11.90;59.51
51313;BME280;37397;53.226;10.400;2023-05-07T03:27:35;101742.91;;;11.89;59.49
51313;BME280;37397;53.226;10.400;2023-05-07T03:30:02;101743.38;;;11.87;59.79
51313;BME280;37397;53.226;10.400;2023-05-07T03:32:29;101747.00;;;11.88;59.55
51313;BME280;37397;53.226;10.400;2023-05-07T03:34:55;101740.50;;;11.87;59.48
51313;BME280;37397;53.226;10.400;2023-05-07T03:37:23;101745.44;;;11.86;59.30
51313;BME280;37397;53.226;10.400;2023-05-07T03:39:49;101736.97;;;11.83;59.47
51313;BME280;37397;53.226;10.400;2023-05-07T03:42:17;101748.75;;;11.85;59.42
51313;BME280;37397;53.226;10.400;2023-05-07T03:44:47;101737.31;;;11.85;59.59
51313;BME280;37397;53.226;10.400;2023-05-07T03:47:13;101744.31;;;11.84;59.51
51313;BME280;37397;53.226;10.400;2023-05-07T03:49:40;101736.66;;;11.81;59.62
51313;BME280;37397;53.226;10.400;2023-05-07T03:52:06;101731.59;;;11.85;59.45
51313;BME280;37397;53.226;10.400;2023-05-07T03:54:33;101738.25;;;11.82;59.51
51313;BME280;37397;53.226;10.400;2023-05-07T03:57:00;101748.09;;;11.81;59.66
51313;BME280;37397;53.226;10.400;2023-05-07T03:59:26;101739.19;;;11.79;59.45
51313;BME280;37397;53.226;10.400;2023-05-07T04:01:53;101744.78;;;11.82;59.54
51313;BME280;37397;53.226;10.400;2023-05-07T04:04:22;101738.72;;;11.80;59.58
51313;BME280;37397;53.226;10.400;2023-05-07T04:06:49;101740.78;;;11.80;59.57
51313;BME280;37397;53.226;10.400;2023-05-07T04:09:15;101739.19;;;11.79;59.64
51313;BME280;37397;53.226;10.400;2023-05-07T04:11:43;101739.19;;;11.79;59.57
51313;BME280;37397;53.226;10.400;2023-05-07T04:14:10;101740.78;;;11.80;59.54
51313;BME280;37397;53.226;10.400;2023-05-07T04:16:37;101747.31;;;11.80;59.59
51313;BME280;37397;53.226;10.400;2023-05-07T04:19:05;101752.66;;;11.78;59.55
51313;BME280;37397;53.226;10.400;2023-05-07T04:21:31;101756.34;;;11.79;59.68
51313;BME280;37397;53.226;10.400;2023-05-07T04:23:58;101750.28;;;11.77;59.73
51313;BME280;37397;53.226;10.400;2023-05-07T04:26:25;101747.41;;;11.77;59.68
51313;BME280;37397;53.226;10.400;2023-05-07T04:28:51;101753.13;;;11.77;59.64
51313;BME280;37397;53.226;10.400;2023-05-07T04:31:17;101749.97;;;11.75;59.68
51313;BME280;37397;53.226;10.400;2023-05-07T04:33:48;101752.34;;;11.76;59.82
51313;BME280;37397;53.226;10.400;2023-05-07T04:36:15;101750.28;;;11.77;59.68
51313;BME280;37397;53.226;10.400;2023-05-07T04:38:48;101753.13;;;11.77;59.99
51313;BME280;37397;53.226;10.400;2023-05-07T04:41:16;101754.41;;;11.76;59.91
51313;BME280;37397;53.226;10.400;2023-05-07T04:43:43;101753.63;;;11.75;60.01
51313;BME280;37397;53.226;10.400;2023-05-07T04:46:11;101749.31;;;11.71;59.93
51313;BME280;37397;53.226;10.400;2023-05-07T04:48:38;101755.03;;;11.71;59.91
51313;BME280;37397;53.226;10.400;2023-05-07T04:51:05;101761.41;;;11.75;59.80
51313;BME280;37397;53.226;10.400;2023-05-07T04:53:33;101767.13;;;11.75;60.01
51313;BME280;37397;53.226;10.400;2023-05-07T04:56:00;101765.53;;;11.74;59.88
51313;BME280;37397;53.226;10.400;2023-05-07T04:58:33;101762.69;;;11.74;60.05
51313;BME280;37397;53.226;10.400;2023-05-07T05:00:59;101774.44;;;11.76;59.88
51313;BME280;37397;53.226;10.400;2023-05-07T05:03:27;101771.25;;;11.74;60.08
51313;BME280;37397;53.226;10.400;2023-05-07T05:05:54;101772.84;;;11.75;59.93
51313;BME280;37397;53.226;10.400;2023-05-07T05:08:22;101780.47;;;11.78;59.90
51313;BME280;37397;53.226;10.400;2023-05-07T05:10:48;101771.25;;;11.74;60.09
51313;BME280;37397;53.226;10.400;2023-05-07T05:13:16;101764.25;;;11.75;59.98
51313;BME280;37397;53.226;10.400;2023-05-07T05:15:43;101781.72;;;11.77;60.07
51313;BME280;37397;53.226;10.400;2023-05-07T05:18:10;101776.03;;;11.77;59.97
51313;BME280;37397;53.226;10.400;2023-05-07T05:20:38;101781.72;;;11.77;60.15
51313;BME280;37397;53.226;10.400;2023-05-07T05:23:07;101784.59;;;11.77;60.17
51313;BME280;37397;53.226;10.400;2023-05-07T05:25:34;101790.66;;;11.79;60.06
51313;BME280;37397;53.226;10.400;2023-05-07T05:28:00;101776.03;;;11.77;60.01
51313;BME280;37397;53.226;10.400;2023-05-07T05:30:28;101783.34;;;11.78;60.02
51313;BME280;37397;53.226;10.400;2023-05-07T05:32:55;101786.19;;;11.78;60.05
51313;BME280;37397;53.226;10.400;2023-05-07T05:35:21;101787.81;;;11.79;60.12
51313;BME280;37397;53.226;10.400;2023-05-07T05:37:48;101787.47;;;11.77;60.07
51313;BME280;37397;53.226;10.400;2023-05-07T05:40:17;101790.31;;;11.77;60.01
51313;BME280;37397;53.226;10.400;2023-05-07T05:42:43;101796.38;;;11.79;60.01
51313;BME280;37397;53.226;10.400;2023-05-07T05:45:11;101781.41;;;11.75;60.16
51313;BME280;37397;53.226;10.400;2023-05-07T05:47:38;101781.72;;;11.77;60.31
51313;BME280;37397;53.226;10.400;2023-05-07T05:50:06;101780.03;;;11.79;60.26
51313;BME280;37397;53.226;10.400;2023-05-07T05:52:34;101792.25;;;11.80;60.41
51313;BME280;37397;53.226;10.400;2023-05-07T05:55:01;101800.50;;;11.78;60.10
51313;BME280;37397;53.226;10.400;2023-05-07T05:57:28;101804.50;;;11.80;60.36
51313;BME280;37397;53.226;10.400;2023-05-07T05:59:55;101797.97;;;11.80;60.31
51313;BME280;37397;53.226;10.400;2023-05-07T06:02:23;101802.09;;;11.79;60.22
51313;BME280;37397;53.226;10.400;2023-05-07T06:04:49;101816.72;;;11.81;60.34
51313;BME280;37397;53.226;10.400;2023-05-07T06:07:18;101802.09;;;11.79;60.54
51313;BME280;37397;53.226;10.400;2023-05-07T06:09:45;101811.81;;;11.81;60.27
51313;BME280;37397;53.226;10.400;2023-05-07T06:12:12;101806.91;;;11.82;60.30
51313;BME280;37397;53.226;10.400;2023-05-07T06:14:38;101814.19;;;11.83;60.44
51313;BME280;37397;53.226;10.400;2023-05-07T06:17:05;101808.47;;;11.83;60.49
51313;BME280;37397;53.226;10.400;2023-05-07T06:19:31;101813.41;;;11.82;60.34
51313;BME280;37397;53.226;10.400;2023-05-07T06:21:59;101814.19;;;11.83;60.49
51313;BME280;37397;53.226;10.400;2023-05-07T06:24:28;101817.06;;;11.83;60.40
51313;BME280;37397;53.226;10.400;2023-05-07T06:26:55;101808.47;;;11.83;60.42
51313;BME280;37397;53.226;10.400;2023-05-07T06:29:22;101807.53;;;11.86;60.66
51313;BME280;37397;53.226;10.400;2023-05-07T06:31:49;101805.97;;;11.85;60.47
51313;BME280;37397;53.226;10.400;2023-05-07T06:34:15;101810.41;;;11.86;60.33
51313;BME280;37397;53.226;10.400;2023-05-07T06:36:42;101808.38;;;11.86;60.53
51313;BME280;37397;53.226;10.400;2023-05-07T06:39:17;101812.47;;;11.85;60.61
51313;BME280;37397;53.226;10.400;2023-05-07T06:41:44;101809.47;;;11.89;60.73
51313;BME280;37397;53.226;10.400;2023-05-07T06:44:21;101807.88;;;11.88;60.50
51313;BME280;37397;53.226;10.400;2023-05-07T06:46:57;101810.72;;;11.88;60.58
51313;BME280;37397;53.226;10.400;2023-05-07T06:49:24;101815.53;;;11.91;60.52
51313;BME280;37397;53.226;10.400;2023-05-07T06:51:50;101818.06;;;11.89;60.75
51313;BME280;37397;53.226;10.400;2023-05-07T06:54:17;101821.25;;;11.91;60.62
51313;BME280;37397;53.226;10.400;2023-05-07T06:56:45;101816.38;;;11.92;60.69
51313;BME280;37397;53.226;10.400;2023-05-07T06:59:12;101826.06;;;11.94;60.63
51313;BME280;37397;53.226;10.400;2023-05-07T07:01:40;101829.38;;;11.93;60.71
51313;BME280;37397;53.226;10.400;2023-05-07T07:04:08;101825.75;;;11.92;60.74
51313;BME280;37397;53.226;10.400;2023-05-07T07:06:35;101823.56;;;11.96;60.75
51313;BME280;37397;53.226;10.400;2023-05-07T07:09:07;101817.84;;;11.96;60.83
51313;BME280;37397;53.226;10.400;2023-05-07T07:11:34;101820.69;;;11.96;60.57
51313;BME280;37397;53.226;10.400;2023-05-07T07:14:01;101817.00;;;11.96;60.78
51313;BME280;37397;53.226;10.400;2023-05-07T07:16:29;101827.53;;;11.99;60.79
51313;BME280;37397;53.226;10.400;2023-05-07T07:18:56;101817.84;;;11.96;60.88
51313;BME280;37397;53.226;10.400;2023-05-07T07:21:22;101823.88;;;11.98;60.79
51313;BME280;37397;53.226;10.400;2023-05-07T07:23:49;101835.63;;;12.00;60.60
51313;BME280;37397;53.226;10.400;2023-05-07T07:26:17;101825.13;;;11.97;60.73
51313;BME280;37397;53.226;10.400;2023-05-07T07:28:45;101823.25;;;12.03;60.96
51313;BME280;37397;53.226;10.400;2023-05-07T07:31:15;101816.75;;;12.03;60.91
51313;BME280;37397;53.226;10.400;2023-05-07T07:33:43;101831.84;;;12.03;60.70
51313;BME280;37397;53.226;10.400;2023-05-07T07:36:09;101833.44;;;12.04;60.96
51313;BME280;37397;53.226;10.400;2023-05-07T07:38:36;101829.31;;;12.06;60.83
51313;BME280;37397;53.226;10.400;2023-05-07T07:41:04;101829.66;;;12.08;60.81
51313;BME280;37397;53.226;10.400;2023-05-07T07:43:30;101832.84;;;12.10;60.87
51313;BME280;37397;53.226;10.400;2023-05-07T07:45:57;101834.91;;;12.09;61.00
51313;BME280;37397;53.226;10.400;2023-05-07T07:48:24;101834.44;;;12.11;60.94
51313;BME280;37397;53.226;10.400;2023-05-07T07:50:51;101840.97;;;12.11;60.76
51313;BME280;37397;53.226;10.400;2023-05-07T07:53:18;101833.50;;;12.14;60.97
51313;BME280;37397;53.226;10.400;2023-05-07T07:55:45;101832.69;;;12.13;60.90
51313;BME280;37397;53.226;10.400;2023-05-07T07:58:15;101831.91;;;12.13;60.99
51313;BME280;37397;53.226;10.400;2023-05-07T08:00:41;101839.56;;;12.16;60.85
51313;BME280;37397;53.226;10.400;2023-05-07T08:03:10;101839.88;;;12.18;60.79
51313;BME280;37397;53.226;10.400;2023-05-07T08:05:41;101837.50;;;12.16;61.01
51313;BME280;37397;53.226;10.400;2023-05-07T08:08:07;101836.22;;;12.17;60.87
51313;BME280;37397;53.226;10.400;2023-05-07T08:10:36;101846.75;;;12.20;60.87
51313;BME280;37397;53.226;10.400;2023-05-07T08:13:10;101842.13;;;12.23;60.82
51313;BME280;37397;53.226;10.400;2023-05-07T08:15:38;101831.63;;;12.20;60.91
51313;BME280;37397;53.226;10.400;2023-05-07T08:18:05;101844.06;;;12.26;60.95
51313;BME280;37397;53.226;10.400;2023-05-07T08:20:33;101848.19;;;12.25;60.96
51313;BME280;37397;53.226;10.400;2023-05-07T08:23:02;101849.78;;;12.26;60.96
51313;BME280;37397;53.226;10.400;2023-05-07T08:25:29;101843.91;;;12.30;60.88
51313;BME280;37397;53.226;10.400;2023-05-07T08:27:56;101836.94;;;12.31;61.09
51313;BME280;37397;53.226;10.400;2023-05-07T08:30:22;101851.91;;;12.35;61.00
51313;BME280;37397;53.226;10.400;2023-05-07T08:32:50;101849.53;;;12.33;60.81
51313;BME280;37397;53.226;10.400;2023-05-07T08:35:16;101853.03;;;12.37;60.85
51313;BME280;37397;53.226;10.400;2023-05-07T08:37:43;101849.69;;;12.39;60.87
51313;BME280;37397;53.226;10.400;2023-05-07T08:40:11;101857.81;;;12.40;60.91
51313;BME280;37397;53.226;10.400;2023-05-07T08:42:41;101862.94;;;12.46;60.96
51313;BME280;37397;53.226;10.400;2023-05-07T08:45:09;101856.72;;;12.47;60.96
51313;BME280;37397;53.226;10.400;2023-05-07T08:47:43;101869.31;;;12.50;61.02
51313;BME280;37397;53.226;10.400;2023-05-07T08:50:16;101861.53;;;12.50;61.03
51313;BME280;37397;53.226;10.400;2023-05-07T08:52:43;101868.38;;;12.53;60.91
51313;BME280;37397;53.226;10.400;2023-05-07T08:55:10;101873.66;;;12.54;61.02
51313;BME280;37397;53.226;10.400;2023-05-07T08:57:39;101878.56;;;12.54;60.84
51313;BME280;37397;53.226;10.400;2023-05-07T09:00:07;101882.88;;;12.58;61.13
51313;BME280;37397;53.226;10.400;2023-05-07T09:02:36;101869.84;;;12.57;60.83
51313;BME280;37397;53.226;10.400;2023-05-07T09:05:05;101880.69;;;12.63;61.05
51313;BME280;37397;53.226;10.400;2023-05-07T09:07:32;101882.25;;;12.64;60.82
51313;BME280;37397;53.226;10.400;2023-05-07T09:10:04;101884.66;;;12.65;61.01
51313;BME280;37397;53.226;10.400;2023-05-07T09:12:32;101884.66;;;12.65;60.68
51313;BME280;37397;53.226;10.400;2023-05-07T09:15:03;101889.44;;;12.68;60.63
51313;BME280;37397;53.226;10.400;2023-05-07T09:17:31;101884.38;;;12.72;60.64
51313;BME280;37397;53.226;10.400;2023-05-07T09:20:05;101885.97;;;12.73;60.65
51313;BME280;37397;53.226;10.400;2023-05-07T09:22:38;101884.38;;;12.72;60.66
51313;BME280;37397;53.226;10.400;2023-05-07T09:25:09;101895.69;;;12.76;60.82
51313;BME280;37397;53.226;10.400;2023-05-07T09:27:37;101900.47;;;12.79;60.79
51313;BME280;37397;53.226;10.400;2023-05-07T09:30:05;101895.53;;;12.80;60.85
51313;BME280;37397;53.226;10.400;2023-05-07T09:32:36;101901.16;;;12.83;60.76
51313;BME280;37397;53.226;10.400;2023-05-07T09:35:16;101893.34;;;12.84;60.85
51313;BME280;37397;53.226;10.400;2023-05-07T09:37:47;101895.25;;;12.87;60.67
51313;BME280;37397;53.226;10.400;2023-05-07T09:40:21;101892.72;;;12.89;60.68
51313;BME280;37397;53.226;10.400;2023-05-07T09:42:50;101882.88;;;12.90;60.76
51313;BME280;37397;53.226;10.400;2023-05-07T09:45:27;101891.78;;;12.92;60.75
51313;BME280;37397;53.226;10.400;2023-05-07T09:47:57;101894.97;;;12.94;60.91
51313;BME280;37397;53.226;10.400;2023-05-07T09:50:32;101892.44;;;12.96;60.83
51313;BME280;37397;53.226;10.400;2023-05-07T09:53:00;101888.94;;;13.01;60.79
51313;BME280;37397;53.226;10.400;2023-05-07T09:55:27;101891.47;;;12.99;60.84
51313;BME280;37397;53.226;10.400;2023-05-07T09:57:54;101892.91;;;13.04;60.61
51313;BME280;37397;53.226;10.400;2023-05-07T10:00:22;101894.06;;;13.06;60.78
51313;BME280;37397;53.226;10.400;2023-05-07T10:02:58;101894.84;;;13.07;60.67
51313;BME280;37397;53.226;10.400;2023-05-07T10:05:35;101895.97;;;13.09;60.69
51313;BME280;37397;53.226;10.400;2023-05-07T10:08:02;101899.16;;;13.11;60.45
51313;BME280;37397;53.226;10.400;2023-05-07T10:10:33;101895.81;;;13.13;60.57
51313;BME280;37397;53.226;10.400;2023-05-07T10:13:01;101898.22;;;13.14;60.62
51313;BME280;37397;53.226;10.400;2023-05-07T10:15:32;101905.88;;;13.18;60.65
51313;BME280;37397;53.226;10.400;2023-05-07T10:18:00;101904.13;;;13.20;60.38
51313;BME280;37397;53.226;10.400;2023-05-07T10:20:29;101902.53;;;13.19;60.39
51313;BME280;37397;53.226;10.400;2023-05-07T10:22:56;101906.84;;;13.24;60.37
51313;BME280;37397;53.226;10.400;2023-05-07T10:25:32;101896.63;;;13.23;60.45
51313;BME280;37397;53.226;10.400;2023-05-07T10:28:07;101900.97;;;13.27;60.43
51313;BME280;37397;53.226;10.400;2023-05-07T10:30:55;101898.56;;;13.26;60.38
51313;BME280;37397;53.226;10.400;2023-05-07T10:33:34;101905.75;;;13.30;60.45
51313;BME280;37397;53.226;10.400;2023-05-07T10:36:01;101907.34;;;13.31;60.44
51313;BME280;37397;53.226;10.400;2023-05-07T10:38:31;101901.97;;;13.34;60.45
51313;BME280;37397;53.226;10.400;2023-05-07T10:40:59;101905.94;;;13.36;60.30
51313;BME280;37397;53.226;10.400;2023-05-07T10:43:39;101909.13;;;13.38;60.32
51313;BME280;37397;53.226;10.400;2023-05-07T10:46:17;101905.31;;;13.41;60.26
51313;BME280;37397;53.226;10.400;2023-05-07T10:51:35;101901.50;;;13.44;60.27
51313;BME280;37397;53.226;10.400;2023-05-07T10:56:51;101910.44;;;13.46;60.18
51313;BME280;37397;53.226;10.400;2023-05-07T11:02:05;101895.44;;;13.52;60.16
51313;BME280;37397;53.226;10.400;2023-05-07T11:04:40;101903.09;;;13.55;60.23
51313;BME280;37397;53.226;10.400;2023-05-07T11:07:24;101901.84;;;13.56;60.11
51313;BME280;37397;53.226;10.400;2023-05-07T11:09:54;101899.59;;;13.60;60.25
51313;BME280;37397;53.226;10.400;2023-05-07T11:15:06;101906.78;;;13.64;60.27
51313;BME280;37397;53.226;10.400;2023-05-07T11:17:55;101901.22;;;13.61;60.05
51313;BME280;37397;53.226;10.400;2023-05-07T11:26:31;101912.84;;;13.76;60.07
51313;BME280;37397;53.226;10.400;2023-05-07T11:29:15;101913.50;;;13.80;60.15
51313;BME280;37397;53.226;10.400;2023-05-07T11:31:49;101904.72;;;13.83;60.05
51313;BME280;37397;53.226;10.400;2023-05-07T11:34:21;101892.94;;;13.81;59.89
51313;BME280;37397;53.226;10.400;2023-05-07T11:36:48;101895.47;;;13.89;59.99
51313;BME280;37397;53.226;10.400;2023-05-07T11:39:24;101907.91;;;13.95;59.95
51313;BME280;37397;53.226;10.400;2023-05-07T11:41:51;101905.34;;;13.97;59.85
51313;BME280;37397;53.226;10.400;2023-05-07T11:44:19;101903.13;;;14.01;59.82
51313;BME280;37397;53.226;10.400;2023-05-07T11:46:45;101898.00;;;14.05;59.83
51313;BME280;37397;53.226;10.400;2023-05-07T11:49:12;101898.34;;;14.07;59.78
51313;BME280;37397;53.226;10.400;2023-05-07T11:51:39;101896.09;;;14.11;59.80
51313;BME280;37397;53.226;10.400;2023-05-07T11:54:06;101897.81;;;14.18;59.81
51313;BME280;37397;53.226;10.400;2023-05-07T11:56:37;101896.56;;;14.19;59.62
51313;BME280;37397;53.226;10.400;2023-05-07T11:59:05;101898.47;;;14.22;59.93
51313;BME280;37397;53.226;10.400;2023-05-07T12:01:31;101904.03;;;14.26;59.74
51313;BME280;37397;53.226;10.400;2023-05-07T12:03:58;101907.06;;;14.31;59.69
51313;BME280;37397;53.226;10.400;2023-05-07T12:06:24;101895.41;;;14.35;59.64
51313;BME280;37397;53.226;10.400;2023-05-07T12:08:53;101900.50;;;14.40;59.27
51313;BME280;37397;53.226;10.400;2023-05-07T12:11:23;101890.13;;;14.43;59.26
51313;BME280;37397;53.226;10.400;2023-05-07T12:13:50;101896.50;;;14.47;59.18
51313;BME280;37397;53.226;10.400;2023-05-07T12:16:18;101896.81;;;14.49;59.15
51313;BME280;37397;53.226;10.400;2023-05-07T12:18:46;101896.66;;;14.52;59.19
51313;BME280;37397;53.226;10.400;2023-05-07T12:21:13;101902.69;;;14.54;59.02
51313;BME280;37397;53.226;10.400;2023-05-07T12:23:39;101906.56;;;14.61;58.92
51313;BME280;37397;53.226;10.400;2023-05-07T12:26:06;101895.19;;;14.57;58.72
51313;BME280;37397;53.226;10.400;2023-05-07T12:28:38;101897.28;;;14.66;58.55
51313;BME280;37397;53.226;10.400;2023-05-07T12:31:05;101891.81;;;14.68;58.57
51313;BME280;37397;53.226;10.400;2023-05-07T12:33:32;101888.00;;;14.71;58.65
51313;BME280;37397;53.226;10.400;2023-05-07T12:36:03;101885.41;;;14.73;58.57
51313;BME280;37397;53.226;10.400;2023-05-07T12:38:34;101887.31;;;14.76;58.52
51313;BME280;37397;53.226;10.400;2023-05-07T12:41:01;101883.47;;;14.79;58.44
51313;BME280;37397;53.226;10.400;2023-05-07T12:43:28;101886.16;;;14.83;58.67
51313;BME280;37397;53.226;10.400;2023-05-07T12:46:00;101878.38;;;14.83;58.51
51313;BME280;37397;53.226;10.400;2023-05-07T12:48:27;101883.75;;;14.90;58.44
51313;BME280;37397;53.226;10.400;2023-05-07T12:50:54;101878.00;;;14.90;58.36
51313;BME280;37397;53.226;10.400;2023-05-07T12:53:23;101881.03;;;14.96;58.44
51313;BME280;37397;53.226;10.400;2023-05-07T12:55:55;101890.72;;;14.99;58.52
51313;BME280;37397;53.226;10.400;2023-05-07T12:58:27;101881.94;;;15.02;58.51
51313;BME280;37397;53.226;10.400;2023-05-07T13:00:56;101888.78;;;15.05;58.37
51313;BME280;37397;53.226;10.400;2023-05-07T13:03:28;101886.53;;;15.09;58.33